createdAt,value
2022-12-29T00:00:17.161Z,7.66
2022-12-29T00:03:14.361Z,7.60
2022-12-29T00:05:56.148Z,7.60
2022-12-29T00:08:42.109Z,7.60
2022-12-29T00:11:21.109Z,7.62
2022-12-29T00:14:14.283Z,7.66
2022-12-29T00:16:51.112Z,7.68
2022-12-29T00:19:44.225Z,7.70
2022-12-29T00:22:39.037Z,7.70
2022-12-29T00:25:34.172Z,7.60
2022-12-29T00:28:30.446Z,7.60
2022-12-29T00:31:27.791Z,7.60
2022-12-29T00:34:20.995Z,7.60
2022-12-29T00:36:58.147Z,7.60
2022-12-29T00:39:53.195Z,7.60
2022-12-29T00:42:47.026Z,7.60
2022-12-29T00:45:23.137Z,7.60
2022-12-29T00:48:00.118Z,7.62
2022-12-29T00:59:09.403Z,7.70
2022-12-29T01:01:43.761Z,7.74
2022-12-29T01:04:18.573Z,7.76
2022-12-29T01:06:52.797Z,7.80
2022-12-29T01:09:44.887Z,7.80
2022-12-29T01:12:39.064Z,7.80
2022-12-29T01:15:17.048Z,7.80
2022-12-29T01:17:51.225Z,7.80
2022-12-29T01:20:24.961Z,7.90
2022-12-29T01:22:58.709Z,7.90
2022-12-29T01:25:32.703Z,7.90
2022-12-29T01:28:07.661Z,7.90
2022-12-29T01:30:41.602Z,7.90
2022-12-29T01:33:15.179Z,7.90
2022-12-29T01:35:48.842Z,7.90
2022-12-29T01:38:22.749Z,7.90
2022-12-29T01:40:57.053Z,7.90
2022-12-29T01:43:47.098Z,7.90
2022-12-29T01:46:32.022Z,7.90
2022-12-29T01:49:16.093Z,7.90
2022-12-29T01:51:59.525Z,7.80
2022-12-29T01:54:42.535Z,7.80
2022-12-29T01:57:22.741Z,7.70
2022-12-29T02:00:02.432Z,7.70
2022-12-29T02:02:51.016Z,7.70
2022-12-29T02:05:35.510Z,7.60
2022-12-29T02:08:10.635Z,7.60
2022-12-29T02:10:46.794Z,7.60
2022-12-29T02:13:22.785Z,7.60
2022-12-29T02:16:17.086Z,7.60
2022-12-29T02:19:12.508Z,7.56
2022-12-29T02:22:10.234Z,7.50
2022-12-29T02:25:40.689Z,7.50
2022-12-29T02:28:49.789Z,7.44
2022-12-29T02:31:32.689Z,7.40
2022-12-29T02:34:23.483Z,7.30
2022-12-29T02:37:09.506Z,7.30
2022-12-29T02:39:52.203Z,7.30
2022-12-29T02:42:37.723Z,7.24
2022-12-29T02:45:20.385Z,7.20
2022-12-29T02:48:03.325Z,7.20
2022-12-29T02:50:43.028Z,7.20
2022-12-29T02:53:41.169Z,7.14
2022-12-29T02:56:15.128Z,7.20
2022-12-29T02:58:49.894Z,7.20
2022-12-29T03:01:39.985Z,7.20
2022-12-29T03:04:32.701Z,7.14
2022-12-29T03:07:19.414Z,7.10
2022-12-29T03:10:07.209Z,7.10
2022-12-29T03:13:12.108Z,7.12
2022-12-29T03:16:06.492Z,7.20
2022-12-29T03:18:53.266Z,7.20
2022-12-29T03:21:56.444Z,7.20
2022-12-29T03:24:36.703Z,7.30
2022-12-29T03:27:16.416Z,7.30
2022-12-29T03:29:56.408Z,7.30
2022-12-29T03:32:41.150Z,7.40
2022-12-29T03:35:19.575Z,7.40
2022-12-29T03:38:07.173Z,7.44
2022-12-29T03:40:44.571Z,7.48
2022-12-29T03:43:19.640Z,7.50
2022-12-29T03:45:53.692Z,7.50
2022-12-29T03:48:27.443Z,7.50
2022-12-29T03:51:02.206Z,7.48
2022-12-29T03:53:36.103Z,7.40
2022-12-29T03:56:10.581Z,7.40
2022-12-29T03:58:45.122Z,7.40
2022-12-29T04:01:23.564Z,7.40
2022-12-29T04:03:57.554Z,7.40
2022-12-29T04:06:31.364Z,7.40
2022-12-29T04:09:11.706Z,7.30
2022-12-29T04:11:50.744Z,7.30
2022-12-29T04:14:25.209Z,7.30
2022-12-29T04:17:00.158Z,7.30
2022-12-29T04:19:34.255Z,7.20
2022-12-29T04:22:09.148Z,7.20
2022-12-29T04:24:43.555Z,7.20
2022-12-29T04:27:18.646Z,7.20
2022-12-29T04:30:17.824Z,7.20
2022-12-29T04:33:16.696Z,7.20
2022-12-29T04:35:54.978Z,7.24
2022-12-29T04:38:29.865Z,7.30
2022-12-29T04:41:06.799Z,7.30
2022-12-29T04:43:41.786Z,7.38
2022-12-29T04:46:18.527Z,7.40
2022-12-29T04:49:09.881Z,7.40
2022-12-29T04:52:03.328Z,7.50
2022-12-29T04:54:37.481Z,7.50
2022-12-29T04:57:16.324Z,7.60
2022-12-29T04:59:53.216Z,7.60
2022-12-29T05:02:27.478Z,7.60
2022-12-29T05:05:03.193Z,7.60
2022-12-29T05:07:38.765Z,7.70
2022-12-29T05:10:14.321Z,7.70
2022-12-29T05:12:48.569Z,7.70
2022-12-29T05:15:24.079Z,7.70
2022-12-29T05:17:58.277Z,7.78
2022-12-29T05:20:32.376Z,7.80
2022-12-29T05:23:07.552Z,7.80
2022-12-29T05:25:41.932Z,7.80
2022-12-29T05:28:25.392Z,7.88
2022-12-29T05:31:05.089Z,7.90
2022-12-29T05:33:39.423Z,7.90
2022-12-29T05:36:14.950Z,7.90
2022-12-29T05:38:55.502Z,7.90
2022-12-29T05:41:30.770Z,7.90
2022-12-29T05:44:08.029Z,7.90
2022-12-29T05:47:03.918Z,7.90
2022-12-29T05:50:02.471Z,7.90
2022-12-29T05:52:56.545Z,7.90
2022-12-29T05:55:30.216Z,7.90
2022-12-29T05:58:03.956Z,8.00
2022-12-29T06:00:37.910Z,8.00
2022-12-29T06:03:11.944Z,8.00
2022-12-29T06:05:46.548Z,8.10
2022-12-29T06:08:21.970Z,8.10
2022-12-29T06:10:56.582Z,8.10
2022-12-29T06:13:31.638Z,8.12
2022-12-29T06:16:05.859Z,8.14
2022-12-29T06:18:40.105Z,8.12
2022-12-29T06:21:15.420Z,8.20
2022-12-29T06:23:49.387Z,8.20
2022-12-29T06:26:23.472Z,8.20
2022-12-29T06:28:57.462Z,8.20
2022-12-29T06:31:31.501Z,8.20
2022-12-29T06:34:08.472Z,8.22
2022-12-29T06:36:43.853Z,8.30
2022-12-29T06:39:18.127Z,8.30
2022-12-29T06:42:01.791Z,8.30
2022-12-29T06:44:48.284Z,8.30
2022-12-29T06:47:22.098Z,8.30
2022-12-29T06:49:56.251Z,8.36
2022-12-29T06:52:30.591Z,8.40
2022-12-29T06:55:04.520Z,8.40
2022-12-29T06:57:38.576Z,8.34
2022-12-29T07:00:22.296Z,8.32
2022-12-29T07:02:59.138Z,8.30
2022-12-29T07:05:33.748Z,8.30
2022-12-29T07:08:07.886Z,8.30
2022-12-29T07:10:41.680Z,8.30
2022-12-29T07:13:15.340Z,8.30
2022-12-29T07:15:49.843Z,8.30
2022-12-29T07:18:24.324Z,8.30
2022-12-29T07:20:58.429Z,8.30
2022-12-29T07:23:32.714Z,8.30
2022-12-29T07:26:08.679Z,8.26
2022-12-29T07:28:42.960Z,8.30
2022-12-29T07:31:25.582Z,8.30
2022-12-29T07:34:00.204Z,8.22
2022-12-29T07:36:34.768Z,8.20
2022-12-29T07:39:09.561Z,8.20
2022-12-29T07:41:47.125Z,8.20
2022-12-29T07:44:25.047Z,8.20
2022-12-29T07:47:04.147Z,8.20
2022-12-29T07:49:37.949Z,8.20
2022-12-29T07:52:19.499Z,8.20
2022-12-29T07:54:54.957Z,8.30
2022-12-29T07:57:32.145Z,8.30
2022-12-29T08:00:13.856Z,8.30
2022-12-29T08:02:55.326Z,8.30
2022-12-29T08:05:29.390Z,8.30
2022-12-29T08:08:03.419Z,8.40
2022-12-29T08:10:37.256Z,8.40
2022-12-29T08:13:11.106Z,8.50
2022-12-29T08:15:44.954Z,8.52
2022-12-29T08:18:19.760Z,8.60
2022-12-29T08:20:55.848Z,8.60
2022-12-29T08:23:30.308Z,8.70
2022-12-29T08:26:07.678Z,8.70
2022-12-29T08:28:42.850Z,8.70
2022-12-29T08:31:17.179Z,8.80
2022-12-29T08:33:51.392Z,8.80
2022-12-29T08:36:25.596Z,8.80
2022-12-29T08:39:00.464Z,8.82
2022-12-29T08:41:34.877Z,8.90
2022-12-29T08:44:08.916Z,8.90
2022-12-29T08:46:44.183Z,9.00
2022-12-29T08:49:18.907Z,9.10
2022-12-29T08:51:53.029Z,9.20
2022-12-29T08:54:27.651Z,9.20
2022-12-29T08:57:02.304Z,9.30
2022-12-29T08:59:44.078Z,9.30
2022-12-29T09:02:24.151Z,9.30
2022-12-29T09:05:00.122Z,9.30
2022-12-29T09:07:34.396Z,9.30
2022-12-29T09:10:10.494Z,9.30
2022-12-29T09:12:44.323Z,9.40
2022-12-29T09:15:18.782Z,9.40
2022-12-29T09:17:52.869Z,9.40
2022-12-29T09:20:27.474Z,9.50
2022-12-29T09:23:01.634Z,9.50
2022-12-29T09:25:36.308Z,9.60
2022-12-29T09:28:10.296Z,9.60
2022-12-29T09:30:45.340Z,9.70
2022-12-29T09:33:20.920Z,9.70
2022-12-29T09:35:59.413Z,9.80
2022-12-29T09:38:33.383Z,9.80
2022-12-29T09:41:24.796Z,9.90
2022-12-29T09:44:15.450Z,9.90
2022-12-29T09:46:55.480Z,10.00
2022-12-29T09:49:47.120Z,10.00
2022-12-29T09:52:30.652Z,10.00
2022-12-29T09:55:14.257Z,10.00
2022-12-29T09:57:56.831Z,10.10
2022-12-29T10:00:49.857Z,10.14
2022-12-29T10:03:30.219Z,10.20
2022-12-29T10:06:16.712Z,10.30
2022-12-29T10:09:10.763Z,10.30
2022-12-29T10:12:08.518Z,10.40
2022-12-29T10:15:03.012Z,10.40
2022-12-29T10:17:57.351Z,10.40
2022-12-29T10:20:46.219Z,10.50
2022-12-29T10:23:36.635Z,10.50
2022-12-29T10:26:24.263Z,10.60
2022-12-29T10:29:20.767Z,10.60
2022-12-29T10:32:10.642Z,10.70
2022-12-29T10:35:00.146Z,10.80
2022-12-29T10:37:54.462Z,10.90
2022-12-29T10:40:40.871Z,10.98
2022-12-29T10:43:33.952Z,10.92
2022-12-29T10:46:23.084Z,10.98
2022-12-29T10:48:57.401Z,11.00
2022-12-29T10:51:36.418Z,11.10
2022-12-29T10:54:17.707Z,11.10
2022-12-29T10:56:57.087Z,11.10
2022-12-29T10:59:36.260Z,11.10
2022-12-29T11:02:50.678Z,11.14
2022-12-29T11:05:34.916Z,11.20
2022-12-29T11:08:18.565Z,11.30
2022-12-29T11:11:04.921Z,11.40
2022-12-29T11:13:51.514Z,11.50
2022-12-29T11:16:35.959Z,11.68
2022-12-29T11:19:24.283Z,11.88
2022-12-29T11:22:14.608Z,12.04
2022-12-29T11:24:53.821Z,12.20
2022-12-29T11:27:29.618Z,12.40
2022-12-29T11:30:04.708Z,12.50
2022-12-29T11:32:52.240Z,12.56
2022-12-29T11:35:39.236Z,12.60
2022-12-29T11:38:28.952Z,12.70
2022-12-29T11:41:04.061Z,12.68
2022-12-29T11:43:44.131Z,12.60
2022-12-29T11:46:26.027Z,12.60
2022-12-29T11:49:02.181Z,12.60
2022-12-29T11:51:45.420Z,12.60
2022-12-29T11:54:27.444Z,12.60
2022-12-29T11:57:12.262Z,12.60
2022-12-29T11:59:57.339Z,12.60
2022-12-29T12:02:50.855Z,12.60
2022-12-29T12:05:43.165Z,12.60
2022-12-29T12:08:32.536Z,12.58
2022-12-29T12:11:16.349Z,12.50
2022-12-29T12:14:00.706Z,12.50
2022-12-29T12:16:43.506Z,12.40
2022-12-29T12:19:34.381Z,12.30
2022-12-29T12:22:18.683Z,12.20
2022-12-29T12:24:58.672Z,12.20
2022-12-29T12:27:41.232Z,12.10
2022-12-29T12:30:21.254Z,12.10
2022-12-29T12:33:01.693Z,12.06
2022-12-29T12:35:46.494Z,12.08
2022-12-29T12:38:35.144Z,12.00
2022-12-29T12:41:21.780Z,12.00
2022-12-29T12:44:10.056Z,11.96
2022-12-29T12:47:11.125Z,11.90
2022-12-29T12:50:14.264Z,11.90
2022-12-29T12:53:13.283Z,11.90
2022-12-29T12:56:18.426Z,11.90
2022-12-29T12:59:05.569Z,11.90
2022-12-29T13:01:59.859Z,11.90
2022-12-29T13:04:58.975Z,12.00
2022-12-29T13:07:52.866Z,12.20
2022-12-29T13:10:47.043Z,12.40
2022-12-29T13:13:50.728Z,12.50
2022-12-29T13:16:38.706Z,12.50
2022-12-29T13:19:25.433Z,12.50
2022-12-29T13:22:13.040Z,12.40
2022-12-29T13:25:11.135Z,12.40
2022-12-29T13:27:55.492Z,12.50
2022-12-29T13:30:41.832Z,12.40
2022-12-29T13:33:26.789Z,12.40
2022-12-29T13:36:09.685Z,12.30
2022-12-29T13:38:49.327Z,12.20
2022-12-29T13:41:35.086Z,12.20
2022-12-29T13:44:18.003Z,12.10
2022-12-29T13:46:57.466Z,12.20
2022-12-29T13:49:35.388Z,12.48
2022-12-29T13:52:24.002Z,12.50
2022-12-29T13:55:11.465Z,12.54
2022-12-29T13:57:56.155Z,12.70
2022-12-29T14:00:37.664Z,12.90
2022-12-29T14:03:46.093Z,13.00
2022-12-29T14:06:30.885Z,12.96
2022-12-29T14:09:10.458Z,12.80
2022-12-29T14:11:45.400Z,12.60
2022-12-29T14:14:30.009Z,12.40
2022-12-29T14:17:15.628Z,12.20
2022-12-29T14:19:54.426Z,12.00
2022-12-29T14:22:33.441Z,11.80
2022-12-29T14:25:57.445Z,11.60
2022-12-29T14:28:34.341Z,11.48
2022-12-29T14:31:29.306Z,11.32
2022-12-29T14:34:40.535Z,11.20
2022-12-29T14:37:30.898Z,11.10
2022-12-29T14:40:23.244Z,11.00
2022-12-29T14:43:00.385Z,10.90
2022-12-29T14:45:38.455Z,10.90
2022-12-29T14:48:44.463Z,10.86
2022-12-29T14:51:41.638Z,10.80
2022-12-29T14:54:51.591Z,10.80
2022-12-29T14:57:41.543Z,10.70
2022-12-29T15:00:31.695Z,10.60
2022-12-29T15:03:14.949Z,10.52
2022-12-29T15:05:53.628Z,10.48
2022-12-29T15:08:33.935Z,10.30
2022-12-29T15:11:16.414Z,10.20
2022-12-29T15:13:52.040Z,10.20
2022-12-29T15:16:35.029Z,10.10
2022-12-29T15:19:25.965Z,10.00
2022-12-29T15:22:03.034Z,9.84
2022-12-29T15:24:43.243Z,9.72
2022-12-29T15:27:21.661Z,9.60
2022-12-29T15:30:13.814Z,9.50
2022-12-29T15:32:54.066Z,9.40
2022-12-29T15:35:37.061Z,9.30
2022-12-29T15:38:32.284Z,9.22
2022-12-29T15:41:24.306Z,9.14
2022-12-29T15:44:16.069Z,9.10
2022-12-29T15:46:50.513Z,9.00
2022-12-29T15:49:31.883Z,8.92
2022-12-29T15:52:11.177Z,8.90
2022-12-29T15:54:48.644Z,8.80
2022-12-29T15:57:30.371Z,8.80
2022-12-29T16:00:05.323Z,8.80
2022-12-29T16:02:46.402Z,8.80
2022-12-29T16:05:22.527Z,8.76
2022-12-29T16:08:01.761Z,8.70
2022-12-29T16:10:41.721Z,8.70
2022-12-29T16:13:27.661Z,8.70
2022-12-29T16:16:14.226Z,8.70
2022-12-29T16:18:55.212Z,8.70
2022-12-29T16:21:38.199Z,8.70
2022-12-29T16:24:19.246Z,8.70
2022-12-29T16:27:00.879Z,8.70
2022-12-29T16:29:36.084Z,8.70
2022-12-29T16:32:30.921Z,8.60
2022-12-29T16:35:23.645Z,8.64
2022-12-29T16:38:19.359Z,8.60
2022-12-29T16:40:59.045Z,8.60
2022-12-29T16:43:36.021Z,8.60
2022-12-29T16:46:31.141Z,8.60
2022-12-29T16:49:06.148Z,8.50
2022-12-29T16:51:41.864Z,8.50
2022-12-29T16:54:26.312Z,8.50
2022-12-29T16:57:00.719Z,8.50
2022-12-29T16:59:40.005Z,8.40
2022-12-29T17:02:22.263Z,8.40
2022-12-29T17:04:57.208Z,8.40
2022-12-29T17:07:32.256Z,8.40
2022-12-29T17:10:07.305Z,8.40
2022-12-29T17:12:42.891Z,8.40
2022-12-29T17:15:27.384Z,8.38
2022-12-29T17:18:06.267Z,8.40
2022-12-29T17:20:43.158Z,8.38
2022-12-29T17:23:26.132Z,8.40
2022-12-29T17:26:01.403Z,8.40
2022-12-29T17:28:36.833Z,8.40
2022-12-29T17:31:13.532Z,8.40
2022-12-29T17:33:49.174Z,8.40
2022-12-29T17:36:23.079Z,8.40
2022-12-29T17:38:57.307Z,8.40
2022-12-29T17:41:31.826Z,8.40
2022-12-29T17:44:06.292Z,8.40
2022-12-29T17:46:40.511Z,8.40
2022-12-29T17:49:19.571Z,8.40
2022-12-29T17:51:53.395Z,8.36
2022-12-29T17:54:29.182Z,8.30
2022-12-29T17:57:03.365Z,8.30
2022-12-29T17:59:37.360Z,8.30
2022-12-29T18:02:29.353Z,8.30
2022-12-29T18:05:04.162Z,8.30
2022-12-29T18:07:38.242Z,8.30
2022-12-29T18:10:12.992Z,8.30
2022-12-29T18:12:50.213Z,8.30
2022-12-29T18:15:28.439Z,8.30
2022-12-29T18:18:11.527Z,8.36
2022-12-29T18:20:47.345Z,8.38
2022-12-29T18:23:25.990Z,8.40
2022-12-29T18:26:04.663Z,8.40
2022-12-29T18:28:39.034Z,8.40
2022-12-29T18:31:23.723Z,8.40
2022-12-29T18:34:00.780Z,8.40
2022-12-29T18:36:34.816Z,8.40
2022-12-29T18:39:08.571Z,8.40
2022-12-29T18:41:42.717Z,8.40
2022-12-29T18:44:18.650Z,8.40
2022-12-29T18:46:52.738Z,8.38
2022-12-29T18:49:27.104Z,8.40
2022-12-29T18:52:01.576Z,8.40
2022-12-29T18:54:37.131Z,8.40
2022-12-29T18:57:11.390Z,8.40
2022-12-29T18:59:45.785Z,8.30
2022-12-29T19:02:23.037Z,8.30
2022-12-29T19:05:05.238Z,8.30
2022-12-29T19:07:41.465Z,8.30
2022-12-29T19:10:17.646Z,8.30
2022-12-29T19:12:53.071Z,8.28
2022-12-29T19:15:31.051Z,8.30
2022-12-29T19:18:43.147Z,8.30
2022-12-29T19:21:04.332Z,8.40
2022-12-29T19:23:38.900Z,8.40
2022-12-29T19:26:32.276Z,8.44
2022-12-29T19:29:08.162Z,8.50
2022-12-29T19:31:43.147Z,8.50
2022-12-29T19:34:20.495Z,8.50
2022-12-29T19:36:57.404Z,8.50
2022-12-29T19:39:31.933Z,8.50
2022-12-29T19:42:06.186Z,8.50
2022-12-29T19:44:41.101Z,8.50
2022-12-29T19:47:16.077Z,8.42
2022-12-29T19:49:50.702Z,8.40
2022-12-29T19:52:25.258Z,8.34
2022-12-29T19:55:00.515Z,8.30
2022-12-29T19:57:35.790Z,8.30
2022-12-29T20:00:13.614Z,8.30
2022-12-29T20:02:48.111Z,8.30
2022-12-29T20:05:23.155Z,8.26
2022-12-29T20:07:57.888Z,8.20
2022-12-29T20:10:32.083Z,8.20
2022-12-29T20:13:06.165Z,8.20
2022-12-29T20:15:43.986Z,8.14
2022-12-29T20:18:21.282Z,8.10
2022-12-29T20:21:07.403Z,8.10
2022-12-29T20:23:43.612Z,8.00
2022-12-29T20:26:24.233Z,8.00
2022-12-29T20:29:00.213Z,7.90
2022-12-29T20:31:37.875Z,7.90
2022-12-29T20:34:14.322Z,7.90
2022-12-29T20:36:50.931Z,7.80
2022-12-29T20:39:26.255Z,7.80
2022-12-29T20:42:00.555Z,7.80
2022-12-29T20:44:36.690Z,7.80
2022-12-29T20:47:10.918Z,7.76
2022-12-29T20:49:45.531Z,7.70
2022-12-29T20:52:20.458Z,7.70
2022-12-29T20:54:54.714Z,7.62
2022-12-29T20:57:39.324Z,7.60
2022-12-29T21:00:23.830Z,7.60
2022-12-29T21:02:58.592Z,7.60
2022-12-29T21:05:33.610Z,7.58
2022-12-29T21:08:08.491Z,7.56
2022-12-29T21:10:42.605Z,7.50
2022-12-29T21:13:18.131Z,7.50
2022-12-29T21:15:56.503Z,7.50
2022-12-29T21:18:32.477Z,7.50
2022-12-29T21:21:10.618Z,7.50
2022-12-29T21:23:45.462Z,7.50
2022-12-29T21:26:23.272Z,7.50
2022-12-29T21:28:57.593Z,7.50
2022-12-29T21:31:34.730Z,7.50
2022-12-29T21:34:10.457Z,7.50
2022-12-29T21:36:44.448Z,7.50
2022-12-29T21:39:18.645Z,7.44
2022-12-29T21:41:52.820Z,7.44
2022-12-29T21:44:44.845Z,7.40
2022-12-29T21:47:18.888Z,7.40
2022-12-29T21:49:52.663Z,7.32
2022-12-29T21:52:26.554Z,7.30
2022-12-29T21:55:05.129Z,7.30
2022-12-29T21:57:56.348Z,7.30
2022-12-29T22:00:47.974Z,7.20
2022-12-29T22:03:40.285Z,7.20
2022-12-29T22:06:33.883Z,7.20
2022-12-29T22:09:25.296Z,7.20
2022-12-29T22:12:17.069Z,7.20
2022-12-29T22:14:51.214Z,7.20
2022-12-29T22:17:28.790Z,7.20
2022-12-29T22:20:04.260Z,7.16
2022-12-29T22:22:40.990Z,7.10
2022-12-29T22:25:15.523Z,7.10
2022-12-29T22:27:55.685Z,7.10
2022-12-29T22:30:34.138Z,7.10
2022-12-29T22:33:08.777Z,7.10
2022-12-29T22:35:42.871Z,7.10
2022-12-29T22:38:17.195Z,7.06
2022-12-29T22:40:51.083Z,7.00
2022-12-29T22:43:26.036Z,6.98
2022-12-29T22:46:05.618Z,6.90
2022-12-29T22:48:40.254Z,6.90
2022-12-29T22:51:14.586Z,6.90
2022-12-29T22:53:51.370Z,6.94
2022-12-29T22:56:25.309Z,7.00
2022-12-29T22:58:59.729Z,7.10
2022-12-29T23:01:34.034Z,7.12
2022-12-29T23:04:55.635Z,7.20
2022-12-29T23:07:02.547Z,7.30
2022-12-29T23:09:37.323Z,7.30
2022-12-29T23:12:11.959Z,7.40
2022-12-29T23:14:46.117Z,7.40
2022-12-29T23:17:20.273Z,7.42
2022-12-29T23:19:54.141Z,7.50
2022-12-29T23:22:28.207Z,7.50
2022-12-29T23:25:02.268Z,7.50
2022-12-29T23:27:37.099Z,7.50
2022-12-29T23:30:13.583Z,7.50
2022-12-29T23:32:47.377Z,7.50
2022-12-29T23:35:22.425Z,7.50
2022-12-29T23:37:57.513Z,7.50
2022-12-29T23:40:33.138Z,7.50
2022-12-29T23:43:07.785Z,7.50
2022-12-29T23:45:48.978Z,7.50
2022-12-29T23:48:25.485Z,7.50
2022-12-29T23:51:00.851Z,7.50
2022-12-29T23:53:35.341Z,7.50
2022-12-29T23:56:13.363Z,7.50
2022-12-29T23:58:47.732Z,7.50
